createdAt,value
2023-01-02T00:00:22.645Z,43.66
2023-01-02T00:00:45.173Z,43.62
2023-01-02T00:01:07.431Z,43.49
2023-01-02T00:01:30.720Z,43.55
2023-01-02T00:01:53.891Z,43.08
2023-01-02T00:02:15.524Z,43.34
2023-01-02T00:02:37.204Z,43.26
2023-01-02T00:03:00.029Z,43.11
2023-01-02T00:03:21.921Z,43.26
2023-01-02T00:03:43.782Z,42.82
2023-01-02T00:04:05.607Z,43.06
2023-01-02T00:04:28.221Z,43.10
2023-01-02T00:04:49.858Z,43.41
2023-01-02T00:05:11.866Z,43.20
2023-01-02T00:05:35.386Z,43.57
2023-01-02T00:05:58.035Z,43.26
2023-01-02T00:06:19.714Z,43.16
2023-01-02T00:06:41.335Z,43.15
2023-01-02T00:07:03.978Z,42.89
2023-01-02T00:07:25.593Z,42.86
2023-01-02T00:07:47.283Z,43.00
2023-01-02T00:08:09.040Z,42.82
2023-01-02T00:08:31.891Z,43.06
2023-01-02T00:08:53.661Z,43.08
2023-01-02T00:09:15.638Z,43.33
2023-01-02T00:09:37.787Z,43.22
2023-01-02T00:10:00.436Z,43.26
2023-01-02T00:10:22.201Z,43.27
2023-01-02T00:10:44.478Z,43.16
2023-01-02T00:11:06.320Z,43.09
2023-01-02T00:11:29.174Z,43.02
2023-01-02T00:11:50.851Z,43.09
2023-01-02T00:12:12.577Z,43.11
2023-01-02T00:12:34.264Z,42.82
2023-01-02T00:12:55.899Z,42.94
2023-01-02T00:13:18.422Z,43.17
2023-01-02T00:13:40.227Z,43.00
2023-01-02T00:14:02.975Z,42.87
2023-01-02T00:14:24.622Z,43.00
2023-01-02T00:14:47.215Z,42.94
2023-01-02T00:15:10.047Z,42.90
2023-01-02T00:15:32.799Z,42.87
2023-01-02T00:15:54.481Z,43.10
2023-01-02T00:16:17.174Z,42.77
2023-01-02T00:16:39.015Z,43.15
2023-01-02T00:17:03.000Z,43.01
2023-01-02T00:17:25.234Z,43.03
2023-01-02T00:17:47.791Z,43.02
2023-01-02T00:18:09.474Z,42.71
2023-01-02T00:18:31.432Z,42.64
2023-01-02T00:18:54.148Z,42.92
2023-01-02T00:19:15.795Z,42.53
2023-01-02T00:19:37.520Z,42.79
2023-01-02T00:19:59.244Z,42.51
2023-01-02T00:20:21.919Z,42.59
2023-01-02T00:20:43.790Z,42.78
2023-01-02T00:21:06.809Z,42.49
2023-01-02T00:21:29.343Z,42.84
2023-01-02T00:21:50.975Z,42.81
2023-01-02T00:22:12.578Z,42.58
2023-01-02T00:22:34.183Z,42.63
2023-01-02T00:22:57.285Z,42.56
2023-01-02T00:23:18.987Z,42.33
2023-01-02T00:23:40.651Z,42.52
2023-01-02T00:24:03.263Z,42.48
2023-01-02T00:24:24.875Z,42.29
2023-01-02T00:24:46.584Z,42.67
2023-01-02T00:25:09.804Z,42.76
2023-01-02T00:25:34.683Z,42.61
2023-01-02T00:25:56.384Z,42.35
2023-01-02T00:26:18.046Z,42.72
2023-01-02T00:26:40.631Z,42.43
2023-01-02T00:27:02.276Z,42.50
2023-01-02T00:27:24.237Z,42.41
2023-01-02T00:27:45.947Z,42.20
2023-01-02T00:28:08.561Z,42.12
2023-01-02T00:28:30.714Z,42.33
2023-01-02T00:28:52.280Z,42.56
2023-01-02T00:29:13.927Z,42.33
2023-01-02T00:29:36.528Z,42.26
2023-01-02T00:29:58.159Z,42.25
2023-01-02T00:30:19.901Z,42.38
2023-01-02T00:30:42.574Z,42.23
2023-01-02T00:31:06.792Z,42.63
2023-01-02T00:31:28.577Z,42.30
2023-01-02T00:31:51.221Z,42.51
2023-01-02T00:32:14.649Z,42.33
2023-01-02T00:32:36.411Z,42.41
2023-01-02T00:32:58.098Z,42.38
2023-01-02T00:33:19.779Z,42.15
2023-01-02T00:33:43.578Z,42.28
2023-01-02T00:34:05.345Z,42.33
2023-01-02T00:34:27.106Z,42.34
2023-01-02T00:34:48.737Z,42.29
2023-01-02T00:35:11.550Z,42.23
2023-01-02T00:35:33.420Z,42.25
2023-01-02T00:35:55.105Z,42.13
2023-01-02T00:36:17.720Z,42.25
2023-01-02T00:36:39.368Z,42.11
2023-01-02T00:37:01.088Z,42.22
2023-01-02T00:37:22.802Z,42.04
2023-01-02T00:37:44.537Z,41.99
2023-01-02T00:38:07.334Z,42.06
2023-01-02T00:38:29.031Z,41.89
2023-01-02T00:38:50.640Z,41.85
2023-01-02T00:39:13.217Z,42.11
2023-01-02T00:39:35.758Z,42.13
2023-01-02T00:39:58.555Z,41.78
2023-01-02T00:40:20.231Z,41.70
2023-01-02T00:40:42.067Z,41.51
2023-01-02T00:41:03.983Z,41.43
2023-01-02T00:41:26.896Z,42.04
2023-01-02T00:41:48.510Z,42.15
2023-01-02T00:42:10.350Z,41.71
2023-01-02T00:42:32.051Z,41.73
2023-01-02T00:42:53.728Z,41.82
2023-01-02T00:43:16.793Z,41.73
2023-01-02T00:43:40.124Z,41.52
2023-01-02T00:44:02.196Z,41.51
2023-01-02T00:44:23.785Z,41.71
2023-01-02T00:44:46.394Z,41.46
2023-01-02T00:45:09.612Z,41.38
2023-01-02T00:45:31.364Z,41.09
2023-01-02T00:45:52.981Z,41.43
2023-01-02T00:46:18.637Z,41.34
2023-01-02T00:46:40.447Z,41.51
2023-01-02T00:47:02.275Z,41.31
2023-01-02T00:47:25.390Z,41.22
2023-01-02T00:47:48.000Z,41.39
2023-01-02T00:48:09.713Z,41.65
2023-01-02T00:48:31.363Z,41.09
2023-01-02T00:48:53.987Z,41.55
2023-01-02T00:49:15.577Z,41.51
2023-01-02T00:49:37.173Z,41.32
2023-01-02T00:49:58.778Z,41.34
2023-01-02T00:50:22.299Z,41.14
2023-01-02T00:50:44.350Z,41.42
2023-01-02T00:51:06.096Z,41.37
2023-01-02T00:51:27.772Z,41.35
2023-01-02T00:51:49.456Z,41.35
2023-01-02T00:52:12.146Z,41.10
2023-01-02T00:52:33.916Z,41.27
2023-01-02T00:52:55.558Z,41.30
2023-01-02T00:53:17.531Z,41.08
2023-01-02T00:53:40.107Z,41.01
2023-01-02T00:54:01.703Z,41.31
2023-01-02T00:54:23.300Z,41.06
2023-01-02T00:54:44.908Z,41.32
2023-01-02T00:55:08.228Z,41.28
2023-01-02T00:55:29.795Z,41.30
2023-01-02T00:55:51.431Z,41.19
2023-01-02T00:56:12.997Z,41.51
2023-01-02T00:56:35.768Z,41.55
2023-01-02T00:56:57.361Z,41.60
2023-01-02T00:57:19.816Z,41.66
2023-01-02T00:57:41.622Z,41.96
2023-01-02T00:58:04.224Z,41.60
2023-01-02T00:58:25.893Z,41.81
2023-01-02T00:58:47.641Z,41.46
2023-01-02T00:59:09.349Z,41.61
2023-01-02T00:59:31.889Z,41.79
2023-01-02T00:59:53.692Z,41.63
2023-01-02T01:00:21.789Z,41.69
2023-01-02T01:00:46.879Z,41.59
2023-01-02T01:01:08.784Z,41.67
2023-01-02T01:01:30.707Z,41.80
2023-01-02T01:01:52.664Z,41.78
2023-01-02T01:02:15.608Z,41.44
2023-01-02T01:02:38.865Z,41.69
2023-01-02T01:03:01.016Z,41.76
2023-01-02T01:03:22.797Z,41.75
2023-01-02T01:03:46.243Z,41.66
2023-01-02T01:04:07.926Z,41.28
2023-01-02T01:04:33.010Z,41.16
2023-01-02T01:04:54.628Z,41.55
2023-01-02T01:05:18.314Z,41.42
2023-01-02T01:05:40.267Z,41.58
2023-01-02T01:06:06.895Z,41.26
2023-01-02T01:06:28.490Z,41.50
2023-01-02T01:06:51.084Z,41.71
2023-01-02T01:07:12.713Z,41.30
2023-01-02T01:07:34.301Z,41.15
2023-01-02T01:07:57.102Z,41.22
2023-01-02T01:08:18.812Z,41.50
2023-01-02T01:08:41.699Z,41.19
2023-01-02T01:09:03.667Z,41.44
2023-01-02T01:09:25.583Z,41.49
2023-01-02T01:09:47.389Z,41.35
2023-01-02T01:10:10.286Z,41.36
2023-01-02T01:10:32.038Z,41.05
2023-01-02T01:10:53.677Z,41.16
2023-01-02T01:11:17.212Z,41.43
2023-01-02T01:11:39.954Z,40.85
2023-01-02T01:12:04.942Z,40.91
2023-01-02T01:12:26.940Z,41.18
2023-01-02T01:12:48.787Z,41.20
2023-01-02T01:13:11.500Z,41.38
2023-01-02T01:13:33.190Z,41.15
2023-01-02T01:13:54.955Z,41.18
2023-01-02T01:14:16.550Z,41.33
2023-01-02T01:14:39.186Z,41.33
2023-01-02T01:15:00.780Z,41.17
2023-01-02T01:15:22.496Z,41.37
2023-01-02T01:15:44.282Z,41.55
2023-01-02T01:16:07.628Z,41.41
2023-01-02T01:16:30.307Z,41.55
2023-01-02T01:16:51.962Z,41.68
2023-01-02T01:17:13.625Z,41.39
2023-01-02T01:17:35.281Z,40.98
2023-01-02T01:17:59.459Z,40.85
2023-01-02T01:18:21.121Z,40.59
2023-01-02T01:18:43.679Z,41.01
2023-01-02T01:19:05.361Z,41.11
2023-01-02T01:19:29.366Z,41.17
2023-01-02T01:19:51.978Z,41.00
2023-01-02T01:20:15.775Z,40.55
2023-01-02T01:20:37.800Z,40.53
2023-01-02T01:20:59.394Z,40.53
2023-01-02T01:21:22.492Z,40.70
2023-01-02T01:21:44.224Z,40.66
2023-01-02T01:22:05.792Z,40.89
2023-01-02T01:22:28.353Z,40.47
2023-01-02T01:22:49.952Z,40.86
2023-01-02T01:23:11.601Z,40.85
2023-01-02T01:23:33.298Z,40.66
2023-01-02T01:23:56.620Z,40.75
2023-01-02T01:24:18.233Z,41.02
2023-01-02T01:24:41.079Z,40.78
2023-01-02T01:25:02.980Z,40.64
2023-01-02T01:25:25.548Z,40.51
2023-01-02T01:25:47.135Z,40.27
2023-01-02T01:26:10.966Z,40.31
2023-01-02T01:26:33.755Z,40.63
2023-01-02T01:26:56.370Z,40.76
2023-01-02T01:27:17.961Z,40.62
2023-01-02T01:27:39.624Z,40.84
2023-01-02T01:28:02.137Z,40.82
2023-01-02T01:28:24.998Z,40.51
2023-01-02T01:28:46.854Z,40.80
2023-01-02T01:29:08.555Z,40.68
2023-01-02T01:29:30.227Z,40.93
2023-01-02T01:29:52.850Z,40.58
2023-01-02T01:30:14.548Z,40.98
2023-01-02T01:30:36.186Z,40.78
2023-01-02T01:31:01.621Z,40.43
2023-01-02T01:31:25.226Z,40.82
2023-01-02T01:31:46.936Z,40.74
2023-01-02T01:32:08.605Z,41.12
2023-01-02T01:32:31.408Z,40.67
2023-01-02T01:32:53.156Z,40.52
2023-01-02T01:33:16.114Z,40.52
2023-01-02T01:33:38.561Z,40.11
2023-01-02T01:34:01.137Z,40.43
2023-01-02T01:34:23.132Z,40.09
2023-01-02T01:34:44.895Z,40.00
2023-01-02T01:35:08.745Z,40.42
2023-01-02T01:35:30.397Z,40.40
2023-01-02T01:35:51.988Z,40.29
2023-01-02T01:36:17.401Z,39.97
2023-01-02T01:36:39.034Z,40.06
2023-01-02T01:37:00.732Z,40.24
2023-01-02T01:37:22.435Z,40.02
2023-01-02T01:37:46.439Z,40.25
2023-01-02T01:38:08.076Z,40.26
2023-01-02T01:38:29.941Z,40.25
2023-01-02T01:38:51.568Z,40.38
2023-01-02T01:39:14.300Z,40.34
2023-01-02T01:39:35.905Z,40.50
2023-01-02T01:39:57.468Z,40.49
2023-01-02T01:40:19.107Z,40.30
2023-01-02T01:40:40.791Z,40.62
2023-01-02T01:41:04.348Z,40.38
2023-01-02T01:41:26.081Z,40.14
2023-01-02T01:41:47.737Z,40.29
2023-01-02T01:42:11.447Z,40.24
2023-01-02T01:42:34.776Z,40.43
2023-01-02T01:43:00.925Z,40.29
2023-01-02T01:43:37.894Z,40.62
2023-01-02T01:44:01.383Z,40.54
2023-01-02T01:45:02.376Z,40.40
2023-01-02T01:45:24.171Z,40.25
2023-01-02T01:45:45.952Z,40.19
2023-01-02T01:46:15.811Z,39.89
2023-01-02T01:46:42.845Z,39.95
2023-01-02T01:47:04.940Z,40.04
2023-01-02T01:47:37.466Z,40.25
2023-01-02T01:48:01.037Z,40.16
2023-01-02T01:48:24.990Z,40.50
2023-01-02T01:48:49.814Z,39.91
2023-01-02T01:49:14.641Z,40.11
2023-01-02T01:49:36.383Z,40.56
2023-01-02T01:50:05.762Z,40.09
2023-01-02T01:50:32.432Z,40.08
2023-01-02T01:50:54.487Z,40.13
2023-01-02T01:51:18.929Z,40.23
2023-01-02T01:51:46.597Z,40.33
2023-01-02T01:52:11.407Z,40.48
2023-01-02T01:52:36.094Z,40.03
2023-01-02T01:53:04.975Z,39.96
2023-01-02T01:53:26.809Z,39.88
2023-01-02T01:53:53.170Z,40.12
2023-01-02T01:54:21.754Z,40.31
2023-01-02T01:54:48.933Z,40.02
2023-01-02T01:55:14.883Z,39.91
2023-01-02T01:55:41.305Z,39.81
2023-01-02T01:56:06.522Z,39.81
2023-01-02T01:56:28.320Z,39.73
2023-01-02T01:56:53.909Z,39.94
2023-01-02T01:57:20.453Z,39.71
2023-01-02T01:57:46.464Z,39.55
2023-01-02T01:58:09.793Z,39.91
2023-01-02T01:58:36.891Z,39.64
2023-01-02T01:58:58.642Z,39.50
2023-01-02T01:59:20.787Z,39.83
2023-01-02T01:59:42.768Z,39.88
2023-01-02T02:00:06.814Z,39.69
2023-01-02T02:00:29.660Z,39.84
2023-01-02T02:00:51.990Z,39.45
2023-01-02T02:01:16.172Z,39.78
2023-01-02T02:01:39.715Z,39.32
2023-01-02T02:02:01.811Z,39.42
2023-01-02T02:02:26.672Z,39.41
2023-01-02T02:02:53.302Z,39.56
2023-01-02T02:03:18.907Z,39.39
2023-01-02T02:03:44.487Z,39.34
2023-01-02T02:04:06.270Z,39.80
2023-01-02T02:04:29.259Z,39.55
2023-01-02T02:04:51.960Z,39.19
2023-01-02T02:05:17.427Z,39.35
2023-01-02T02:05:41.221Z,39.20
2023-01-02T02:06:05.195Z,39.46
2023-01-02T02:06:26.957Z,39.51
2023-01-02T02:06:49.823Z,39.51
2023-01-02T02:07:12.444Z,39.44
2023-01-02T02:07:41.190Z,39.30
2023-01-02T02:08:12.462Z,39.43
2023-01-02T02:08:37.918Z,39.71
2023-01-02T02:09:05.068Z,39.91
2023-01-02T02:09:32.919Z,39.50
2023-01-02T02:10:00.168Z,39.45
2023-01-02T02:10:21.861Z,39.43
2023-01-02T02:10:45.202Z,39.45
2023-01-02T02:11:07.658Z,39.29
2023-01-02T02:11:30.475Z,39.12
2023-01-02T02:11:54.552Z,39.34
2023-01-02T02:12:21.685Z,39.30
2023-01-02T02:12:46.196Z,39.95
2023-01-02T02:13:07.932Z,39.96
2023-01-02T02:13:31.674Z,39.85
2023-01-02T02:13:58.360Z,39.67
2023-01-02T02:14:19.937Z,39.77
2023-01-02T02:14:41.605Z,40.12
2023-01-02T02:15:05.459Z,40.15
2023-01-02T02:15:36.056Z,39.92
2023-01-02T02:16:09.463Z,39.74
2023-01-02T02:16:41.763Z,39.48
2023-01-02T02:17:11.382Z,39.66
2023-01-02T02:17:44.952Z,39.68
2023-01-02T02:18:27.344Z,39.58
2023-01-02T02:19:19.648Z,39.57
2023-01-02T02:20:03.774Z,39.69
2023-01-02T02:20:38.899Z,39.78
2023-01-02T02:21:14.286Z,39.79
2023-01-02T02:21:56.307Z,39.65
2023-01-02T02:22:37.219Z,39.83
2023-01-02T02:23:30.656Z,40.13
2023-01-02T02:24:32.539Z,39.79
2023-01-02T02:25:16.358Z,39.45
2023-01-02T02:26:05.632Z,39.30
2023-01-02T02:26:53.139Z,39.68
2023-01-02T02:27:50.586Z,39.74
2023-01-02T02:28:49.561Z,39.28
2023-01-02T02:29:33.367Z,39.47
2023-01-02T02:30:08.809Z,39.35
2023-01-02T02:30:37.805Z,39.12
2023-01-02T02:31:08.028Z,38.90
2023-01-02T02:31:39.441Z,39.14
2023-01-02T02:32:09.249Z,39.61
2023-01-02T02:32:54.146Z,39.53
2023-01-02T02:33:27.706Z,39.06
2023-01-02T02:33:56.162Z,39.24
2023-01-02T02:34:24.691Z,39.21
2023-01-02T02:34:56.565Z,39.07
2023-01-02T02:35:29.921Z,39.16
2023-01-02T02:36:04.089Z,39.16
2023-01-02T02:36:32.848Z,38.82
2023-01-02T02:37:01.320Z,39.16
2023-01-02T02:37:30.049Z,39.41
2023-01-02T02:37:59.374Z,39.38
2023-01-02T02:38:32.305Z,39.05
2023-01-02T02:39:09.819Z,39.07
2023-01-02T02:39:45.732Z,39.07
2023-01-02T02:40:18.332Z,39.10
2023-01-02T02:40:52.921Z,39.26
2023-01-02T02:41:26.231Z,38.94
2023-01-02T02:41:57.047Z,39.23
2023-01-02T02:42:27.754Z,38.84
2023-01-02T02:43:01.113Z,38.77
2023-01-02T02:43:31.976Z,38.77
2023-01-02T02:44:06.859Z,39.10
2023-01-02T02:44:38.002Z,39.21
2023-01-02T02:45:11.722Z,39.26
2023-01-02T02:45:44.576Z,39.04
2023-01-02T02:46:15.004Z,38.85
2023-01-02T02:46:47.938Z,39.11
2023-01-02T02:47:17.012Z,38.99
2023-01-02T02:47:47.757Z,39.08
2023-01-02T02:48:15.807Z,39.02
2023-01-02T02:48:49.417Z,38.89
2023-01-02T02:49:15.560Z,38.92
2023-01-02T02:49:48.983Z,38.98
2023-01-02T02:50:15.684Z,39.12
2023-01-02T02:50:40.720Z,38.88
2023-01-02T02:51:07.627Z,38.63
2023-01-02T02:51:35.387Z,38.53
2023-01-02T02:52:04.229Z,38.89
2023-01-02T02:52:31.686Z,38.78
2023-01-02T02:52:59.057Z,38.32
2023-01-02T02:53:24.796Z,38.55
2023-01-02T02:53:54.691Z,38.40
2023-01-02T02:54:23.744Z,38.34
2023-01-02T02:54:51.988Z,38.48
2023-01-02T02:55:19.102Z,38.99
2023-01-02T02:55:44.874Z,38.95
2023-01-02T02:56:09.920Z,38.83
2023-01-02T02:56:32.198Z,38.63
2023-01-02T02:56:57.439Z,38.42
2023-01-02T02:57:21.112Z,38.39
2023-01-02T02:57:44.769Z,38.92
2023-01-02T02:58:07.782Z,38.47
2023-01-02T02:58:31.583Z,38.55
2023-01-02T02:58:54.280Z,38.45
2023-01-02T02:59:16.090Z,38.46
2023-01-02T02:59:41.496Z,38.40
2023-01-02T03:00:08.826Z,38.73
2023-01-02T03:00:30.433Z,38.63
2023-01-02T03:01:02.089Z,38.78
2023-01-02T03:01:30.145Z,38.61
2023-01-02T03:01:53.766Z,38.69
2023-01-02T03:02:17.338Z,38.73
2023-01-02T03:02:39.338Z,38.86
2023-01-02T03:03:01.160Z,38.33
2023-01-02T03:03:25.325Z,38.63
2023-01-02T03:03:46.941Z,39.11
2023-01-02T03:04:17.442Z,38.84
2023-01-02T03:04:40.125Z,38.79
2023-01-02T03:05:05.095Z,38.51
2023-01-02T03:05:33.757Z,38.74
2023-01-02T03:06:08.100Z,38.92
2023-01-02T03:06:45.621Z,38.86
2023-01-02T03:07:21.638Z,38.46
2023-01-02T03:07:49.622Z,38.33
2023-01-02T03:08:21.838Z,38.42
2023-01-02T03:08:49.359Z,39.01
2023-01-02T03:09:18.384Z,38.92
2023-01-02T03:09:50.413Z,38.66
2023-01-02T03:10:21.363Z,38.65
2023-01-02T03:10:49.425Z,38.93
2023-01-02T03:11:12.869Z,38.34
2023-01-02T03:11:51.542Z,38.50
2023-01-02T03:12:24.980Z,38.43
2023-01-02T03:12:56.353Z,38.89
2023-01-02T03:13:28.314Z,38.42
2023-01-02T03:13:59.254Z,38.35
2023-01-02T03:14:30.979Z,38.41
2023-01-02T03:14:58.668Z,38.34
2023-01-02T03:15:28.671Z,38.82
2023-01-02T03:16:01.018Z,38.54
2023-01-02T03:16:30.067Z,38.85
2023-01-02T03:16:55.993Z,38.67
2023-01-02T03:17:26.896Z,38.70
2023-01-02T03:18:03.671Z,38.59
2023-01-02T03:18:34.527Z,38.95
2023-01-02T03:19:01.768Z,38.55
2023-01-02T03:19:31.329Z,38.91
2023-01-02T03:20:00.567Z,38.75
2023-01-02T03:20:27.167Z,38.53
2023-01-02T03:20:58.422Z,38.28
2023-01-02T03:21:31.464Z,38.44
2023-01-02T03:22:00.834Z,38.48
2023-01-02T03:22:29.845Z,38.54
2023-01-02T03:22:58.175Z,38.67
2023-01-02T03:23:23.565Z,38.43
2023-01-02T03:23:47.489Z,38.32
2023-01-02T03:24:12.046Z,38.21
2023-01-02T03:24:37.043Z,38.27
2023-01-02T03:24:59.351Z,38.41
2023-01-02T03:25:22.860Z,38.52
2023-01-02T03:25:45.773Z,38.47
2023-01-02T03:26:07.513Z,38.50
2023-01-02T03:26:32.136Z,38.48
2023-01-02T03:26:58.691Z,38.40
2023-01-02T03:27:26.029Z,38.55
2023-01-02T03:27:50.184Z,38.48
2023-01-02T03:28:15.578Z,38.37
2023-01-02T03:28:42.338Z,38.35
2023-01-02T03:29:08.228Z,38.26
2023-01-02T03:29:34.101Z,38.13
2023-01-02T03:30:02.508Z,38.49
2023-01-02T03:30:26.554Z,38.34
2023-01-02T03:30:52.539Z,38.41
2023-01-02T03:31:19.026Z,38.30
2023-01-02T03:31:43.012Z,38.59
2023-01-02T03:32:10.030Z,38.42
2023-01-02T03:32:35.449Z,38.66
2023-01-02T03:33:03.699Z,38.70
2023-01-02T03:33:28.562Z,38.73
2023-01-02T03:33:54.426Z,38.49
2023-01-02T03:34:21.035Z,38.43
2023-01-02T03:34:45.661Z,38.13
2023-01-02T03:35:12.131Z,38.09
2023-01-02T03:35:37.862Z,38.35
2023-01-02T03:36:03.487Z,38.49
2023-01-02T03:36:29.211Z,38.08
2023-01-02T03:36:55.749Z,38.33
2023-01-02T03:37:20.773Z,38.53
2023-01-02T03:37:50.275Z,38.01
2023-01-02T03:38:16.125Z,37.89
2023-01-02T03:38:44.283Z,38.10
2023-01-02T03:39:12.275Z,38.43
2023-01-02T03:39:40.100Z,38.51
2023-01-02T03:40:08.019Z,38.25
2023-01-02T03:40:39.237Z,38.21
2023-01-02T03:41:09.308Z,38.32
2023-01-02T03:41:35.870Z,38.48
2023-01-02T03:42:04.939Z,38.32
2023-01-02T03:42:29.886Z,38.29
2023-01-02T03:42:57.858Z,38.62
2023-01-02T03:43:24.470Z,38.31
2023-01-02T03:43:56.366Z,38.39
2023-01-02T03:44:22.571Z,38.05
2023-01-02T03:44:49.582Z,37.97
2023-01-02T03:45:17.623Z,38.19
2023-01-02T03:45:47.030Z,37.95
2023-01-02T03:46:15.259Z,37.99
2023-01-02T03:46:42.929Z,38.16
2023-01-02T03:47:11.876Z,38.29
2023-01-02T03:47:38.939Z,38.28
2023-01-02T03:48:08.226Z,38.33
2023-01-02T03:48:35.477Z,37.87
2023-01-02T03:49:04.503Z,38.10
2023-01-02T03:49:32.084Z,38.32
2023-01-02T03:49:58.759Z,37.85
2023-01-02T03:50:25.079Z,37.97
2023-01-02T03:50:50.389Z,38.36
2023-01-02T03:51:13.563Z,38.57
2023-01-02T03:51:35.882Z,38.55
2023-01-02T03:51:57.717Z,38.37
2023-01-02T03:52:25.623Z,38.16
2023-01-02T03:52:48.987Z,38.01
2023-01-02T03:53:10.864Z,38.48
2023-01-02T03:53:34.674Z,38.60
2023-01-02T03:53:57.286Z,38.29
2023-01-02T03:54:20.411Z,38.69
2023-01-02T03:54:42.383Z,38.23
2023-01-02T03:55:05.363Z,38.09
2023-01-02T03:55:32.476Z,37.72
2023-01-02T03:56:08.402Z,38.22
2023-01-02T03:56:39.811Z,37.97
2023-01-02T03:57:08.806Z,38.22
2023-01-02T03:57:37.122Z,38.16
2023-01-02T03:58:07.004Z,38.29
2023-01-02T03:58:36.286Z,37.99
2023-01-02T03:59:05.514Z,38.01
2023-01-02T03:59:39.558Z,37.88
2023-01-02T04:00:05.756Z,37.99
2023-01-02T04:00:38.732Z,38.25
2023-01-02T04:01:08.687Z,38.16
2023-01-02T04:01:38.345Z,38.11
2023-01-02T04:02:04.318Z,38.04
2023-01-02T04:02:33.219Z,38.38
2023-01-02T04:03:04.058Z,38.24
2023-01-02T04:03:33.905Z,37.93
2023-01-02T04:04:01.461Z,38.41
2023-01-02T04:04:33.168Z,38.17
2023-01-02T04:04:58.433Z,38.46
2023-01-02T04:05:25.055Z,38.45
2023-01-02T04:05:51.758Z,37.96
2023-01-02T04:06:16.047Z,37.82
2023-01-02T04:06:40.903Z,38.16
2023-01-02T04:07:07.229Z,37.96
2023-01-02T04:07:34.770Z,38.23
2023-01-02T04:08:02.787Z,38.23
2023-01-02T04:08:29.922Z,38.01
2023-01-02T04:08:58.533Z,38.30
2023-01-02T04:09:23.792Z,38.30
2023-01-02T04:09:47.505Z,38.29
2023-01-02T04:10:11.914Z,38.13
2023-01-02T04:10:35.756Z,38.13
2023-01-02T04:11:02.063Z,37.63
2023-01-02T04:11:27.450Z,37.88
2023-01-02T04:11:54.139Z,37.75
2023-01-02T04:12:20.401Z,37.75
2023-01-02T04:12:48.098Z,37.81
2023-01-02T04:13:16.531Z,37.97
2023-01-02T04:13:42.369Z,37.98
2023-01-02T04:14:11.946Z,38.10
2023-01-02T04:14:41.328Z,37.97
2023-01-02T04:15:06.846Z,37.78
2023-01-02T04:15:34.336Z,37.80
2023-01-02T04:15:57.678Z,37.58
2023-01-02T04:16:27.543Z,38.01
2023-01-02T04:16:50.934Z,38.09
2023-01-02T04:17:16.769Z,37.97
2023-01-02T04:17:43.734Z,38.30
2023-01-02T04:18:09.963Z,38.04
2023-01-02T04:18:42.959Z,38.03
2023-01-02T04:19:13.484Z,38.15
2023-01-02T04:19:38.901Z,38.33
2023-01-02T04:20:06.531Z,38.23
2023-01-02T04:20:32.009Z,38.13
2023-01-02T04:20:57.549Z,38.36
2023-01-02T04:21:25.055Z,38.52
2023-01-02T04:21:49.476Z,38.26
2023-01-02T04:22:17.428Z,38.02
2023-01-02T04:22:44.646Z,38.22
2023-01-02T04:23:10.601Z,38.17
2023-01-02T04:23:36.746Z,38.44
2023-01-02T04:24:04.137Z,38.44
2023-01-02T04:24:30.217Z,38.34
2023-01-02T04:24:57.488Z,38.10
2023-01-02T04:25:21.021Z,37.90
2023-01-02T04:25:47.722Z,37.77
2023-01-02T04:26:15.037Z,37.97
2023-01-02T04:26:43.701Z,38.15
2023-01-02T04:27:09.390Z,37.96
2023-01-02T04:27:35.183Z,37.76
2023-01-02T04:28:03.410Z,37.74
2023-01-02T04:28:29.118Z,38.33
2023-01-02T04:28:50.977Z,38.05
2023-01-02T04:29:13.121Z,37.99
2023-01-02T04:29:35.941Z,38.02
2023-01-02T04:29:58.826Z,38.54
2023-01-02T04:30:20.825Z,38.28
2023-01-02T04:30:46.596Z,38.30
2023-01-02T04:31:12.761Z,38.13
2023-01-02T04:31:42.870Z,37.99
2023-01-02T04:32:11.660Z,37.97
2023-01-02T04:32:39.868Z,38.20
2023-01-02T04:33:06.967Z,38.26
2023-01-02T04:33:30.688Z,38.08
2023-01-02T04:33:56.449Z,38.16
2023-01-02T04:34:20.481Z,38.11
2023-01-02T04:34:44.146Z,38.24
2023-01-02T04:35:09.742Z,38.79
2023-01-02T04:35:32.783Z,38.24
2023-01-02T04:35:54.491Z,38.51
2023-01-02T04:36:16.557Z,38.46
2023-01-02T04:36:39.401Z,38.18
2023-01-02T04:37:02.827Z,38.25
2023-01-02T04:37:27.335Z,38.32
2023-01-02T04:37:49.293Z,38.22
2023-01-02T04:38:12.315Z,38.20
2023-01-02T04:38:34.931Z,38.26
2023-01-02T04:38:56.837Z,38.31
2023-01-02T04:39:21.731Z,38.27
2023-01-02T04:39:44.393Z,38.23
2023-01-02T04:40:13.567Z,38.16
2023-01-02T04:40:37.643Z,38.18
2023-01-02T04:40:59.792Z,38.19
2023-01-02T04:41:27.235Z,38.26
2023-01-02T04:41:49.030Z,37.94
2023-01-02T04:42:10.607Z,38.03
2023-01-02T04:42:32.356Z,38.16
2023-01-02T04:42:55.083Z,37.96
2023-01-02T04:43:18.892Z,38.01
2023-01-02T04:43:40.838Z,38.27
2023-01-02T04:44:03.487Z,38.34
2023-01-02T04:44:25.402Z,38.33
2023-01-02T04:44:47.012Z,38.02
2023-01-02T04:45:09.708Z,38.12
2023-01-02T04:45:32.320Z,38.31
2023-01-02T04:45:54.044Z,37.98
2023-01-02T04:46:16.826Z,38.05
2023-01-02T04:46:39.800Z,38.25
2023-01-02T04:47:02.628Z,38.16
2023-01-02T04:47:24.267Z,38.14
2023-01-02T04:47:47.558Z,38.24
2023-01-02T04:48:09.222Z,38.32
2023-01-02T04:48:33.402Z,38.32
2023-01-02T04:48:55.822Z,37.99
2023-01-02T04:49:17.542Z,38.28
2023-01-02T04:49:39.128Z,38.19
2023-01-02T04:50:01.772Z,37.99
2023-01-02T04:50:23.412Z,38.25
2023-01-02T04:50:45.542Z,38.11
2023-01-02T04:51:07.195Z,38.16
2023-01-02T04:51:29.979Z,38.41
2023-01-02T04:51:51.552Z,38.05
2023-01-02T04:52:13.243Z,37.87
2023-01-02T04:52:37.343Z,37.99
2023-01-02T04:52:59.435Z,38.14
2023-01-02T04:53:22.514Z,38.19
2023-01-02T04:53:44.157Z,37.86
2023-01-02T04:54:06.212Z,38.45
2023-01-02T04:54:27.799Z,38.09
2023-01-02T04:54:49.421Z,38.40
2023-01-02T04:55:11.993Z,37.90
2023-01-02T04:55:34.122Z,37.62
2023-01-02T04:55:56.406Z,37.69
2023-01-02T04:56:18.734Z,37.27
2023-01-02T04:56:41.333Z,37.36
2023-01-02T04:57:02.947Z,37.28
2023-01-02T04:57:24.784Z,37.48
2023-01-02T04:57:46.465Z,37.16
2023-01-02T04:58:08.426Z,37.04
2023-01-02T04:58:31.139Z,37.35
2023-01-02T04:58:53.083Z,37.27
2023-01-02T04:59:14.760Z,37.28
2023-01-02T04:59:36.439Z,37.60
2023-01-02T04:59:58.976Z,37.72
2023-01-02T05:00:20.658Z,37.38
2023-01-02T05:00:42.398Z,37.39
2023-01-02T05:01:09.652Z,37.71
2023-01-02T05:01:31.532Z,37.41
2023-01-02T05:01:54.651Z,37.49
2023-01-02T05:02:17.447Z,37.36
2023-01-02T05:02:40.332Z,37.68
2023-01-02T05:03:03.193Z,37.76
2023-01-02T05:03:25.011Z,37.84
2023-01-02T05:03:49.827Z,37.82
2023-01-02T05:04:11.577Z,37.49
2023-01-02T05:04:33.451Z,37.67
2023-01-02T05:04:55.042Z,37.15
2023-01-02T05:05:17.760Z,37.24
2023-01-02T05:05:39.460Z,37.45
2023-01-02T05:06:01.401Z,37.25
2023-01-02T05:06:23.110Z,37.46
2023-01-02T05:06:45.720Z,37.64
2023-01-02T05:07:07.531Z,37.26
2023-01-02T05:07:29.239Z,37.50
2023-01-02T05:07:50.814Z,37.46
2023-01-02T05:08:16.429Z,37.31
2023-01-02T05:08:39.711Z,37.59
2023-01-02T05:09:01.517Z,37.52
2023-01-02T05:09:23.310Z,37.44
2023-01-02T05:09:45.075Z,37.31
2023-01-02T05:10:08.703Z,37.11
2023-01-02T05:10:30.305Z,36.95
2023-01-02T05:10:52.006Z,36.85
2023-01-02T05:11:17.061Z,37.13
2023-01-02T05:11:38.775Z,37.67
2023-01-02T05:12:00.615Z,37.85
2023-01-02T05:12:22.280Z,37.47
2023-01-02T05:12:44.877Z,37.58
2023-01-02T05:13:06.548Z,37.88
2023-01-02T05:13:28.847Z,37.75
2023-01-02T05:13:50.689Z,37.64
2023-01-02T05:14:13.285Z,37.69
2023-01-02T05:14:34.895Z,37.23
2023-01-02T05:14:56.520Z,37.52
2023-01-02T05:15:18.276Z,37.58
2023-01-02T05:15:40.913Z,37.54
2023-01-02T05:16:03.759Z,37.60
2023-01-02T05:16:25.552Z,37.74
2023-01-02T05:16:47.216Z,37.54
2023-01-02T05:17:11.152Z,37.28
2023-01-02T05:17:35.431Z,37.24
2023-01-02T05:17:57.958Z,37.34
2023-01-02T05:18:19.639Z,37.75
2023-01-02T05:18:42.268Z,37.46
2023-01-02T05:19:04.040Z,37.42
2023-01-02T05:19:25.651Z,37.20
2023-01-02T05:19:47.259Z,37.48
2023-01-02T05:20:12.724Z,37.12
2023-01-02T05:20:35.165Z,37.65
2023-01-02T05:21:00.970Z,37.74
2023-01-02T05:21:40.861Z,37.34
2023-01-02T05:22:21.210Z,37.83
2023-01-02T05:23:02.547Z,37.39
2023-01-02T05:23:42.487Z,37.24
2023-01-02T05:24:04.888Z,37.50
2023-01-02T05:24:27.716Z,37.52